KPOB/POB METAR and TAF weather

Enter ICAO airport designator
Station Type Date Time Source
KPOB METAR 2021/04/17 01:56 UTC NOAA

KPOB 170156Z AUTO 00000KT 10SM CLR 12/05 A2983 RMK AO2 SLP104 T01200052 $


Station Type Date Time Source
KPOB Decoded METAR 2021/04/17 01:56 UTC NOAA

Pope Air Force Base, NC, United States (KPOB) 35-10N 079-02W 61M
Apr 16, 2021 - 09:56 PM EDT / 2021.04.17 0156 UTC
Wind: Calm:0
Visibility: 10 mile(s):0
Sky conditions: clear
Temperature: 53.6 F (12.0 C)
Dew Point: 41.4 F (5.2 C)
Relative Humidity: 63%
Pressure (altimeter): 29.83 in. Hg (1010 hPa)
ob: KPOB 170156Z AUTO 00000KT 10SM CLR 12/05 A2983 RMK AO2 SLP104 T01200052
cycle: 2

Station Type Date Time Source
KPOB TAF 2021/04/17 01:09 UTC NOAA

TAF KPOB 170100Z 1701/1807 28005KT 9999 SCT140 SCT200 QNH2978INS
BECMG 1707/1708 02007KT 9999 SCT120 BKN200 QNH2983INS
BECMG 1716/1717 29007KT 9999 BKN060 OVC100 QNH2982INS TX20/1720Z TN07/1711Z

Example: see airport list